sensor_id;sensor_type;location;lat;lon;timestamp;P1;durP1;ratioP1;P2;durP2;ratioP2
21901;SDS011;11115;46.038;14.612;2023-02-15T00:01:04;4.78;;;3.35;;
21901;SDS011;11115;46.038;14.612;2023-02-15T00:03:47;7.03;;;4.90;;
21901;SDS011;11115;46.038;14.612;2023-02-15T00:06:20;7.73;;;3.63;;
21901;SDS011;11115;46.038;14.612;2023-02-15T00:09:02;8.17;;;4.93;;
21901;SDS011;11115;46.038;14.612;2023-02-15T00:11:34;4.70;;;3.30;;
21901;SDS011;11115;46.038;14.612;2023-02-15T00:16:48;12.03;;;5.00;;
21901;SDS011;11115;46.038;14.612;2023-02-15T00:21:52;16.30;;;4.77;;
21901;SDS011;11115;46.038;14.612;2023-02-15T00:24:34;12.57;;;5.17;;
21901;SDS011;11115;46.038;14.612;2023-02-15T00:27:12;13.30;;;5.63;;
21901;SDS011;11115;46.038;14.612;2023-02-15T00:29:42;8.07;;;4.10;;
21901;SDS011;11115;46.038;14.612;2023-02-15T00:32:14;6.80;;;4.10;;
21901;SDS011;11115;46.038;14.612;2023-02-15T00:34:45;9.70;;;4.77;;
21901;SDS011;11115;46.038;14.612;2023-02-15T00:37:29;8.97;;;3.83;;
21901;SDS011;11115;46.038;14.612;2023-02-15T00:40:18;8.33;;;3.93;;
21901;SDS011;11115;46.038;14.612;2023-02-15T00:42:50;5.27;;;3.30;;
21901;SDS011;11115;46.038;14.612;2023-02-15T00:45:20;11.32;;;4.03;;
21901;SDS011;11115;46.038;14.612;2023-02-15T00:47:52;13.07;;;3.40;;
21901;SDS011;11115;46.038;14.612;2023-02-15T00:50:27;5.10;;;3.80;;
21901;SDS011;11115;46.038;14.612;2023-02-15T00:53:00;5.03;;;4.17;;
21901;SDS011;11115;46.038;14.612;2023-02-15T00:55:33;6.43;;;3.50;;
21901;SDS011;11115;46.038;14.612;2023-02-15T00:58:06;9.93;;;3.77;;
21901;SDS011;11115;46.038;14.612;2023-02-15T01:00:35;7.03;;;2.40;;
21901;SDS011;11115;46.038;14.612;2023-02-15T01:03:07;11.05;;;4.38;;
21901;SDS011;11115;46.038;14.612;2023-02-15T01:05:54;7.23;;;3.53;;
21901;SDS011;11115;46.038;14.612;2023-02-15T01:08:45;3.83;;;2.77;;
21901;SDS011;11115;46.038;14.612;2023-02-15T01:11:16;4.53;;;2.53;;
21901;SDS011;11115;46.038;14.612;2023-02-15T01:13:58;7.33;;;3.07;;
21901;SDS011;11115;46.038;14.612;2023-02-15T01:16:56;4.67;;;3.10;;
21901;SDS011;11115;46.038;14.612;2023-02-15T01:19:52;7.23;;;4.07;;
21901;SDS011;11115;46.038;14.612;2023-02-15T01:22:25;12.83;;;4.13;;
21901;SDS011;11115;46.038;14.612;2023-02-15T01:24:55;6.70;;;3.43;;
21901;SDS011;11115;46.038;14.612;2023-02-15T01:27:45;9.80;;;3.83;;
21901;SDS011;11115;46.038;14.612;2023-02-15T01:30:25;11.73;;;4.93;;
21901;SDS011;11115;46.038;14.612;2023-02-15T01:32:55;5.40;;;3.97;;
21901;SDS011;11115;46.038;14.612;2023-02-15T01:35:31;11.60;;;4.10;;
21901;SDS011;11115;46.038;14.612;2023-02-15T01:38:03;12.93;;;4.03;;
21901;SDS011;11115;46.038;14.612;2023-02-15T01:40:46;12.47;;;3.93;;
21901;SDS011;11115;46.038;14.612;2023-02-15T01:43:18;8.60;;;3.80;;
21901;SDS011;11115;46.038;14.612;2023-02-15T01:45:50;9.73;;;4.10;;
21901;SDS011;11115;46.038;14.612;2023-02-15T01:48:34;15.73;;;5.43;;
21901;SDS011;11115;46.038;14.612;2023-02-15T01:51:14;6.40;;;3.67;;
21901;SDS011;11115;46.038;14.612;2023-02-15T01:53:59;9.37;;;4.07;;
21901;SDS011;11115;46.038;14.612;2023-02-15T01:56:36;5.53;;;3.33;;
21901;SDS011;11115;46.038;14.612;2023-02-15T01:59:16;7.60;;;3.27;;
21901;SDS011;11115;46.038;14.612;2023-02-15T02:01:56;7.77;;;3.43;;
21901;SDS011;11115;46.038;14.612;2023-02-15T02:04:41;3.73;;;2.57;;
21901;SDS011;11115;46.038;14.612;2023-02-15T02:07:28;9.43;;;4.87;;
21901;SDS011;11115;46.038;14.612;2023-02-15T02:10:03;9.17;;;3.23;;
21901;SDS011;11115;46.038;14.612;2023-02-15T02:12:46;2.93;;;2.53;;
21901;SDS011;11115;46.038;14.612;2023-02-15T02:15:23;13.43;;;3.90;;
21901;SDS011;11115;46.038;14.612;2023-02-15T02:21:17;5.00;;;3.20;;
21901;SDS011;11115;46.038;14.612;2023-02-15T02:27:05;13.15;;;4.97;;
21901;SDS011;11115;46.038;14.612;2023-02-15T02:38:48;13.47;;;5.37;;
21901;SDS011;11115;46.038;14.612;2023-02-15T02:42:10;14.47;;;5.60;;
21901;SDS011;11115;46.038;14.612;2023-02-15T02:48:13;6.50;;;3.87;;
21901;SDS011;11115;46.038;14.612;2023-02-15T02:50:52;12.57;;;4.50;;
21901;SDS011;11115;46.038;14.612;2023-02-15T02:53:27;7.90;;;4.23;;
21901;SDS011;11115;46.038;14.612;2023-02-15T02:56:17;5.43;;;3.20;;
21901;SDS011;11115;46.038;14.612;2023-02-15T02:59:49;7.47;;;2.93;;
21901;SDS011;11115;46.038;14.612;2023-02-15T03:02:38;9.10;;;3.93;;
21901;SDS011;11115;46.038;14.612;2023-02-15T03:05:14;9.80;;;4.03;;
21901;SDS011;11115;46.038;14.612;2023-02-15T03:07:50;2.90;;;2.63;;
21901;SDS011;11115;46.038;14.612;2023-02-15T03:10:25;6.00;;;3.07;;
21901;SDS011;11115;46.038;14.612;2023-02-15T03:12:56;5.63;;;3.28;;
21901;SDS011;11115;46.038;14.612;2023-02-15T03:15:29;5.22;;;2.97;;
21901;SDS011;11115;46.038;14.612;2023-02-15T03:18:28;2.63;;;1.77;;
21901;SDS011;11115;46.038;14.612;2023-02-15T03:21:07;5.03;;;3.40;;
21901;SDS011;11115;46.038;14.612;2023-02-15T03:24:00;5.27;;;3.63;;
21901;SDS011;11115;46.038;14.612;2023-02-15T03:26:47;10.50;;;4.60;;
21901;SDS011;11115;46.038;14.612;2023-02-15T03:29:26;12.97;;;4.90;;
21901;SDS011;11115;46.038;14.612;2023-02-15T03:32:07;9.43;;;4.67;;
21901;SDS011;11115;46.038;14.612;2023-02-15T03:34:39;8.53;;;4.87;;
21901;SDS011;11115;46.038;14.612;2023-02-15T03:37:13;22.20;;;5.35;;
21901;SDS011;11115;46.038;14.612;2023-02-15T03:40:37;12.93;;;4.77;;
21901;SDS011;11115;46.038;14.612;2023-02-15T03:52:58;7.80;;;4.97;;
21901;SDS011;11115;46.038;14.612;2023-02-15T03:55:34;24.70;;;5.97;;
21901;SDS011;11115;46.038;14.612;2023-02-15T03:58:14;18.73;;;5.90;;
21901;SDS011;11115;46.038;14.612;2023-02-15T04:01:11;6.53;;;4.87;;
21901;SDS011;11115;46.038;14.612;2023-02-15T04:04:46;17.57;;;3.57;;
21901;SDS011;11115;46.038;14.612;2023-02-15T04:07:22;10.37;;;4.73;;
21901;SDS011;11115;46.038;14.612;2023-02-15T04:09:52;6.77;;;3.23;;
21901;SDS011;11115;46.038;14.612;2023-02-15T04:12:41;20.63;;;6.87;;
21901;SDS011;11115;46.038;14.612;2023-02-15T04:15:13;13.83;;;5.57;;
21901;SDS011;11115;46.038;14.612;2023-02-15T04:17:58;11.33;;;4.23;;
21901;SDS011;11115;46.038;14.612;2023-02-15T04:20:31;8.48;;;4.70;;
21901;SDS011;11115;46.038;14.612;2023-02-15T04:23:18;14.13;;;3.97;;
21901;SDS011;11115;46.038;14.612;2023-02-15T04:26:07;12.97;;;5.87;;
21901;SDS011;11115;46.038;14.612;2023-02-15T04:28:40;11.20;;;5.63;;
21901;SDS011;11115;46.038;14.612;2023-02-15T04:31:13;30.70;;;7.15;;
21901;SDS011;11115;46.038;14.612;2023-02-15T04:33:45;5.43;;;3.97;;
21901;SDS011;11115;46.038;14.612;2023-02-15T04:36:18;10.73;;;5.67;;
21901;SDS011;11115;46.038;14.612;2023-02-15T04:38:49;7.80;;;3.93;;
21901;SDS011;11115;46.038;14.612;2023-02-15T04:41:32;8.30;;;4.38;;
21901;SDS011;11115;46.038;14.612;2023-02-15T04:44:08;7.53;;;4.93;;
21901;SDS011;11115;46.038;14.612;2023-02-15T04:46:40;13.05;;;5.28;;
21901;SDS011;11115;46.038;14.612;2023-02-15T04:49:08;14.90;;;2.97;;
21901;SDS011;11115;46.038;14.612;2023-02-15T04:51:56;10.73;;;5.07;;
21901;SDS011;11115;46.038;14.612;2023-02-15T04:54:29;18.03;;;5.27;;
21901;SDS011;11115;46.038;14.612;2023-02-15T04:57:00;12.02;;;4.22;;
21901;SDS011;11115;46.038;14.612;2023-02-15T04:59:30;12.23;;;5.23;;
21901;SDS011;11115;46.038;14.612;2023-02-15T05:02:02;7.30;;;4.00;;
21901;SDS011;11115;46.038;14.612;2023-02-15T05:04:31;6.10;;;2.80;;
21901;SDS011;11115;46.038;14.612;2023-02-15T05:07:03;10.27;;;3.77;;
21901;SDS011;11115;46.038;14.612;2023-02-15T05:09:36;10.43;;;4.27;;
21901;SDS011;11115;46.038;14.612;2023-02-15T05:12:08;9.40;;;5.10;;
21901;SDS011;11115;46.038;14.612;2023-02-15T05:14:40;15.37;;;4.20;;
21901;SDS011;11115;46.038;14.612;2023-02-15T05:17:12;10.60;;;3.33;;
21901;SDS011;11115;46.038;14.612;2023-02-15T05:19:42;12.30;;;3.45;;
21901;SDS011;11115;46.038;14.612;2023-02-15T05:22:12;6.73;;;4.23;;
21901;SDS011;11115;46.038;14.612;2023-02-15T05:24:45;6.77;;;3.93;;
21901;SDS011;11115;46.038;14.612;2023-02-15T05:27:33;9.43;;;4.63;;
21901;SDS011;11115;46.038;14.612;2023-02-15T05:30:20;13.07;;;6.20;;
21901;SDS011;11115;46.038;14.612;2023-02-15T05:32:52;15.65;;;5.05;;
21901;SDS011;11115;46.038;14.612;2023-02-15T05:35:33;8.83;;;5.20;;
21901;SDS011;11115;46.038;14.612;2023-02-15T05:38:08;9.43;;;4.73;;
21901;SDS011;11115;46.038;14.612;2023-02-15T05:43:09;30.57;;;8.40;;
21901;SDS011;11115;46.038;14.612;2023-02-15T05:45:43;19.65;;;8.20;;
21901;SDS011;11115;46.038;14.612;2023-02-15T05:48:20;12.27;;;4.07;;
21901;SDS011;11115;46.038;14.612;2023-02-15T05:51:24;25.23;;;5.60;;
21901;SDS011;11115;46.038;14.612;2023-02-15T05:53:55;17.10;;;7.07;;
21901;SDS011;11115;46.038;14.612;2023-02-15T05:56:29;24.53;;;8.60;;
21901;SDS011;11115;46.038;14.612;2023-02-15T05:59:03;25.60;;;9.30;;
21901;SDS011;11115;46.038;14.612;2023-02-15T06:01:39;12.20;;;6.90;;
21901;SDS011;11115;46.038;14.612;2023-02-15T06:04:26;15.00;;;4.13;;
21901;SDS011;11115;46.038;14.612;2023-02-15T06:06:57;6.85;;;3.40;;
21901;SDS011;11115;46.038;14.612;2023-02-15T06:09:29;13.37;;;4.90;;
21901;SDS011;11115;46.038;14.612;2023-02-15T06:12:09;7.88;;;4.57;;
21901;SDS011;11115;46.038;14.612;2023-02-15T06:14:44;17.17;;;6.40;;
21901;SDS011;11115;46.038;14.612;2023-02-15T06:17:29;18.53;;;4.93;;
21901;SDS011;11115;46.038;14.612;2023-02-15T06:20:00;8.00;;;3.58;;
21901;SDS011;11115;46.038;14.612;2023-02-15T06:22:31;8.82;;;4.75;;
21901;SDS011;11115;46.038;14.612;2023-02-15T06:25:03;8.23;;;4.87;;
21901;SDS011;11115;46.038;14.612;2023-02-15T06:27:43;11.57;;;4.83;;
21901;SDS011;11115;46.038;14.612;2023-02-15T06:30:15;13.60;;;5.10;;
21901;SDS011;11115;46.038;14.612;2023-02-15T06:32:50;7.67;;;3.40;;
21901;SDS011;11115;46.038;14.612;2023-02-15T06:35:19;8.17;;;3.17;;
21901;SDS011;11115;46.038;14.612;2023-02-15T06:37:50;6.03;;;4.13;;
21901;SDS011;11115;46.038;14.612;2023-02-15T06:40:20;8.37;;;4.83;;
21901;SDS011;11115;46.038;14.612;2023-02-15T06:42:53;11.47;;;5.23;;
21901;SDS011;11115;46.038;14.612;2023-02-15T06:45:26;6.32;;;5.63;;
21901;SDS011;11115;46.038;14.612;2023-02-15T06:47:54;12.43;;;6.03;;
21901;SDS011;11115;46.038;14.612;2023-02-15T06:50:26;16.10;;;6.53;;
21901;SDS011;11115;46.038;14.612;2023-02-15T06:52:59;14.57;;;5.87;;
21901;SDS011;11115;46.038;14.612;2023-02-15T06:55:42;6.82;;;4.43;;
21901;SDS011;11115;46.038;14.612;2023-02-15T06:58:26;5.20;;;2.70;;
21901;SDS011;11115;46.038;14.612;2023-02-15T07:00:59;8.67;;;4.27;;
21901;SDS011;11115;46.038;14.612;2023-02-15T07:03:36;13.03;;;5.20;;
21901;SDS011;11115;46.038;14.612;2023-02-15T07:06:11;10.67;;;5.47;;
21901;SDS011;11115;46.038;14.612;2023-02-15T07:08:46;7.73;;;3.83;;
21901;SDS011;11115;46.038;14.612;2023-02-15T07:11:28;12.70;;;4.38;;
21901;SDS011;11115;46.038;14.612;2023-02-15T07:14:17;11.53;;;4.73;;
21901;SDS011;11115;46.038;14.612;2023-02-15T07:16:47;9.70;;;5.07;;
21901;SDS011;11115;46.038;14.612;2023-02-15T07:19:32;7.80;;;4.50;;
21901;SDS011;11115;46.038;14.612;2023-02-15T07:22:09;8.20;;;5.43;;
21901;SDS011;11115;46.038;14.612;2023-02-15T07:24:40;13.07;;;5.00;;
21901;SDS011;11115;46.038;14.612;2023-02-15T07:27:08;18.83;;;6.10;;
21901;SDS011;11115;46.038;14.612;2023-02-15T07:29:50;7.05;;;4.53;;
21901;SDS011;11115;46.038;14.612;2023-02-15T07:32:31;11.23;;;5.53;;
21901;SDS011;11115;46.038;14.612;2023-02-15T07:35:01;17.07;;;7.33;;
21901;SDS011;11115;46.038;14.612;2023-02-15T07:37:31;14.37;;;6.30;;
21901;SDS011;11115;46.038;14.612;2023-02-15T07:40:10;15.60;;;6.30;;
21901;SDS011;11115;46.038;14.612;2023-02-15T07:42:52;9.90;;;3.67;;
21901;SDS011;11115;46.038;14.612;2023-02-15T07:45:22;5.17;;;4.67;;
21901;SDS011;11115;46.038;14.612;2023-02-15T07:48:08;13.90;;;5.73;;
21901;SDS011;11115;46.038;14.612;2023-02-15T07:53:11;17.25;;;7.60;;
21901;SDS011;11115;46.038;14.612;2023-02-15T07:55:44;10.87;;;5.47;;
21901;SDS011;11115;46.038;14.612;2023-02-15T07:58:30;10.47;;;4.83;;
21901;SDS011;11115;46.038;14.612;2023-02-15T08:01:13;17.07;;;5.67;;
21901;SDS011;11115;46.038;14.612;2023-02-15T08:03:51;5.17;;;3.47;;
21901;SDS011;11115;46.038;14.612;2023-02-15T08:06:30;5.87;;;3.67;;
21901;SDS011;11115;46.038;14.612;2023-02-15T08:09:08;20.27;;;5.23;;
21901;SDS011;11115;46.038;14.612;2023-02-15T08:11:38;8.87;;;4.73;;
21901;SDS011;11115;46.038;14.612;2023-02-15T08:14:14;11.17;;;4.37;;
21901;SDS011;11115;46.038;14.612;2023-02-15T08:16:47;15.50;;;8.13;;
21901;SDS011;11115;46.038;14.612;2023-02-15T08:19:18;15.77;;;5.50;;
21901;SDS011;11115;46.038;14.612;2023-02-15T08:22:04;10.90;;;4.00;;
21901;SDS011;11115;46.038;14.612;2023-02-15T08:24:37;11.33;;;6.03;;
21901;SDS011;11115;46.038;14.612;2023-02-15T08:27:07;15.87;;;5.13;;
21901;SDS011;11115;46.038;14.612;2023-02-15T08:29:38;16.58;;;6.32;;
21901;SDS011;11115;46.038;14.612;2023-02-15T08:32:26;9.00;;;4.80;;
21901;SDS011;11115;46.038;14.612;2023-02-15T08:35:01;7.80;;;4.83;;
21901;SDS011;11115;46.038;14.612;2023-02-15T08:37:33;10.88;;;4.50;;
21901;SDS011;11115;46.038;14.612;2023-02-15T08:40:04;17.27;;;5.97;;
21901;SDS011;11115;46.038;14.612;2023-02-15T08:42:38;15.47;;;5.17;;
21901;SDS011;11115;46.038;14.612;2023-02-15T08:45:24;10.47;;;4.80;;
21901;SDS011;11115;46.038;14.612;2023-02-15T08:47:55;6.67;;;3.97;;
21901;SDS011;11115;46.038;14.612;2023-02-15T08:50:28;19.33;;;6.10;;
21901;SDS011;11115;46.038;14.612;2023-02-15T08:53:07;11.57;;;6.67;;
21901;SDS011;11115;46.038;14.612;2023-02-15T08:55:43;14.03;;;5.47;;
21901;SDS011;11115;46.038;14.612;2023-02-15T08:58:23;12.03;;;5.57;;
21901;SDS011;11115;46.038;14.612;2023-02-15T09:00:58;15.53;;;4.07;;
21901;SDS011;11115;46.038;14.612;2023-02-15T09:03:35;35.43;;;7.10;;
21901;SDS011;11115;46.038;14.612;2023-02-15T09:06:06;10.53;;;6.87;;
21901;SDS011;11115;46.038;14.612;2023-02-15T09:08:38;15.67;;;5.33;;
21901;SDS011;11115;46.038;14.612;2023-02-15T09:11:12;23.40;;;4.83;;
21901;SDS011;11115;46.038;14.612;2023-02-15T09:16:27;8.00;;;5.03;;
21901;SDS011;11115;46.038;14.612;2023-02-15T09:21:38;16.97;;;5.23;;
21901;SDS011;11115;46.038;14.612;2023-02-15T09:24:13;13.97;;;6.80;;
21901;SDS011;11115;46.038;14.612;2023-02-15T09:26:46;21.17;;;6.73;;
21901;SDS011;11115;46.038;14.612;2023-02-15T09:29:18;19.40;;;7.82;;
21901;SDS011;11115;46.038;14.612;2023-02-15T09:31:51;6.97;;;4.87;;
21901;SDS011;11115;46.038;14.612;2023-02-15T09:34:36;15.67;;;6.47;;
21901;SDS011;11115;46.038;14.612;2023-02-15T09:37:11;14.03;;;6.27;;
21901;SDS011;11115;46.038;14.612;2023-02-15T09:39:49;8.50;;;4.97;;
21901;SDS011;11115;46.038;14.612;2023-02-15T09:45:21;16.57;;;6.60;;
21901;SDS011;11115;46.038;14.612;2023-02-15T09:48:38;13.73;;;5.37;;
21901;SDS011;11115;46.038;14.612;2023-02-15T09:54:32;10.10;;;5.53;;
21901;SDS011;11115;46.038;14.612;2023-02-15T09:57:27;11.53;;;6.33;;
21901;SDS011;11115;46.038;14.612;2023-02-15T10:13:38;11.30;;;6.63;;
21901;SDS011;11115;46.038;14.612;2023-02-15T10:25:07;8.53;;;5.20;;
21901;SDS011;11115;46.038;14.612;2023-02-15T10:28:17;14.57;;;7.15;;
21901;SDS011;11115;46.038;14.612;2023-02-15T10:45:37;17.93;;;8.10;;
21901;SDS011;11115;46.038;14.612;2023-02-15T11:06:53;16.50;;;7.80;;
21901;SDS011;11115;46.038;14.612;2023-02-15T11:09:27;21.50;;;7.93;;
21901;SDS011;11115;46.038;14.612;2023-02-15T11:12:20;17.80;;;8.47;;
21901;SDS011;11115;46.038;14.612;2023-02-15T11:18:31;31.67;;;11.20;;
21901;SDS011;11115;46.038;14.612;2023-02-15T11:21:28;25.87;;;10.70;;
21901;SDS011;11115;46.038;14.612;2023-02-15T11:24:12;29.10;;;8.07;;
21901;SDS011;11115;46.038;14.612;2023-02-15T11:32:57;26.30;;;11.10;;
21901;SDS011;11115;46.038;14.612;2023-02-15T11:35:57;26.67;;;8.27;;
21901;SDS011;11115;46.038;14.612;2023-02-15T11:41:17;30.97;;;10.87;;
21901;SDS011;11115;46.038;14.612;2023-02-15T11:46:37;32.50;;;8.43;;
21901;SDS011;11115;46.038;14.612;2023-02-15T11:49:12;21.20;;;7.60;;
21901;SDS011;11115;46.038;14.612;2023-02-15T11:52:10;30.87;;;10.07;;
21901;SDS011;11115;46.038;14.612;2023-02-15T11:54:47;38.28;;;12.25;;
21901;SDS011;11115;46.038;14.612;2023-02-15T11:57:39;37.87;;;11.07;;
21901;SDS011;11115;46.038;14.612;2023-02-15T12:00:25;34.20;;;10.13;;
21901;SDS011;11115;46.038;14.612;2023-02-15T12:03:15;24.17;;;9.80;;
21901;SDS011;11115;46.038;14.612;2023-02-15T12:05:53;23.63;;;8.80;;
21901;SDS011;11115;46.038;14.612;2023-02-15T12:08:34;18.10;;;7.57;;
21901;SDS011;11115;46.038;14.612;2023-02-15T12:11:12;27.07;;;9.63;;
21901;SDS011;11115;46.038;14.612;2023-02-15T12:14:06;26.20;;;9.30;;
21901;SDS011;11115;46.038;14.612;2023-02-15T12:16:55;28.83;;;9.47;;
21901;SDS011;11115;46.038;14.612;2023-02-15T12:19:55;28.30;;;9.77;;
21901;SDS011;11115;46.038;14.612;2023-02-15T12:22:33;33.83;;;10.63;;
21901;SDS011;11115;46.038;14.612;2023-02-15T12:25:27;29.93;;;11.60;;
21901;SDS011;11115;46.038;14.612;2023-02-15T12:31:22;26.00;;;8.53;;
21901;SDS011;11115;46.038;14.612;2023-02-15T12:34:00;20.05;;;7.13;;
21901;SDS011;11115;46.038;14.612;2023-02-15T12:36:46;26.67;;;8.40;;
21901;SDS011;11115;46.038;14.612;2023-02-15T12:39:28;18.63;;;8.53;;
21901;SDS011;11115;46.038;14.612;2023-02-15T12:42:05;23.93;;;9.13;;
21901;SDS011;11115;46.038;14.612;2023-02-15T12:47:47;22.80;;;8.23;;
21901;SDS011;11115;46.038;14.612;2023-02-15T12:50:36;28.67;;;10.07;;
21901;SDS011;11115;46.038;14.612;2023-02-15T12:53:20;26.70;;;8.87;;
21901;SDS011;11115;46.038;14.612;2023-02-15T12:56:04;18.93;;;8.17;;
21901;SDS011;11115;46.038;14.612;2023-02-15T12:58:38;20.55;;;8.98;;
21901;SDS011;11115;46.038;14.612;2023-02-15T13:01:22;27.67;;;9.03;;
21901;SDS011;11115;46.038;14.612;2023-02-15T13:04:05;25.33;;;8.97;;
21901;SDS011;11115;46.038;14.612;2023-02-15T13:06:53;23.83;;;8.73;;
21901;SDS011;11115;46.038;14.612;2023-02-15T13:09:38;30.77;;;9.43;;
21901;SDS011;11115;46.038;14.612;2023-02-15T13:15:21;15.63;;;6.90;;
21901;SDS011;11115;46.038;14.612;2023-02-15T13:18:05;23.83;;;8.63;;
21901;SDS011;11115;46.038;14.612;2023-02-15T13:21:14;18.73;;;8.60;;
21901;SDS011;11115;46.038;14.612;2023-02-15T13:23:52;18.87;;;8.70;;
21901;SDS011;11115;46.038;14.612;2023-02-15T13:26:32;16.70;;;8.20;;
21901;SDS011;11115;46.038;14.612;2023-02-15T13:29:37;13.93;;;6.27;;
21901;SDS011;11115;46.038;14.612;2023-02-15T13:33:01;23.30;;;7.20;;
21901;SDS011;11115;46.038;14.612;2023-02-15T13:35:15;21.63;;;7.93;;
21901;SDS011;11115;46.038;14.612;2023-02-15T13:38:00;23.53;;;7.20;;
21901;SDS011;11115;46.038;14.612;2023-02-15T13:40:51;20.83;;;8.10;;
21901;SDS011;11115;46.038;14.612;2023-02-15T13:53:14;18.23;;;5.37;;
21901;SDS011;11115;46.038;14.612;2023-02-15T13:59:46;19.17;;;6.80;;
21901;SDS011;11115;46.038;14.612;2023-02-15T14:05:06;16.60;;;6.13;;
21901;SDS011;11115;46.038;14.612;2023-02-15T14:26:35;13.87;;;6.07;;
21901;SDS011;11115;46.038;14.612;2023-02-15T14:36:15;15.40;;;6.00;;
21901;SDS011;11115;46.038;14.612;2023-02-15T14:42:20;25.60;;;7.47;;
21901;SDS011;11115;46.038;14.612;2023-02-15T14:47:48;20.93;;;6.30;;
21901;SDS011;11115;46.038;14.612;2023-02-15T14:50:46;15.20;;;6.57;;
21901;SDS011;11115;46.038;14.612;2023-02-15T14:53:34;21.90;;;6.37;;
21901;SDS011;11115;46.038;14.612;2023-02-15T15:01:24;27.40;;;6.77;;
21901;SDS011;11115;46.038;14.612;2023-02-15T15:10:34;23.27;;;7.17;;
21901;SDS011;11115;46.038;14.612;2023-02-15T15:16:35;13.27;;;5.83;;
21901;SDS011;11115;46.038;14.612;2023-02-15T15:19:56;12.33;;;6.40;;
21901;SDS011;11115;46.038;14.612;2023-02-15T15:22:22;15.87;;;6.80;;
21901;SDS011;11115;46.038;14.612;2023-02-15T15:27:43;12.57;;;5.93;;
21901;SDS011;11115;46.038;14.612;2023-02-15T15:33:29;16.50;;;6.23;;
21901;SDS011;11115;46.038;14.612;2023-02-15T15:49:06;23.57;;;8.03;;
21901;SDS011;11115;46.038;14.612;2023-02-15T15:51:42;21.45;;;7.90;;
21901;SDS011;11115;46.038;14.612;2023-02-15T15:54:23;13.00;;;6.13;;
21901;SDS011;11115;46.038;14.612;2023-02-15T15:56:58;22.73;;;7.77;;
21901;SDS011;11115;46.038;14.612;2023-02-15T15:59:33;19.93;;;6.87;;
21901;SDS011;11115;46.038;14.612;2023-02-15T16:02:10;14.37;;;6.07;;
21901;SDS011;11115;46.038;14.612;2023-02-15T16:04:47;50.00;;;17.97;;
21901;SDS011;11115;46.038;14.612;2023-02-15T16:07:32;50.83;;;16.60;;
21901;SDS011;11115;46.038;14.612;2023-02-15T16:10:07;29.63;;;12.10;;
21901;SDS011;11115;46.038;14.612;2023-02-15T16:12:47;16.77;;;7.27;;
21901;SDS011;11115;46.038;14.612;2023-02-15T16:15:26;15.23;;;6.63;;
21901;SDS011;11115;46.038;14.612;2023-02-15T16:18:04;18.07;;;7.27;;
21901;SDS011;11115;46.038;14.612;2023-02-15T16:20:39;13.90;;;4.33;;
21901;SDS011;11115;46.038;14.612;2023-02-15T16:26:08;13.40;;;5.03;;
21901;SDS011;11115;46.038;14.612;2023-02-15T16:28:50;10.13;;;4.20;;
21901;SDS011;11115;46.038;14.612;2023-02-15T16:33:58;16.80;;;4.40;;
21901;SDS011;11115;46.038;14.612;2023-02-15T16:36:38;18.47;;;6.03;;
21901;SDS011;11115;46.038;14.612;2023-02-15T16:39:19;9.02;;;4.72;;
21901;SDS011;11115;46.038;14.612;2023-02-15T16:41:54;22.07;;;5.90;;
21901;SDS011;11115;46.038;14.612;2023-02-15T16:44:34;18.40;;;6.30;;
21901;SDS011;11115;46.038;14.612;2023-02-15T16:47:07;16.53;;;7.97;;
21901;SDS011;11115;46.038;14.612;2023-02-15T16:49:51;44.53;;;14.00;;
21901;SDS011;11115;46.038;14.612;2023-02-15T16:52:34;12.87;;;7.30;;
21901;SDS011;11115;46.038;14.612;2023-02-15T16:55:05;15.30;;;5.73;;
21901;SDS011;11115;46.038;14.612;2023-02-15T16:57:41;25.90;;;7.23;;
21901;SDS011;11115;46.038;14.612;2023-02-15T17:00:18;12.90;;;6.60;;
21901;SDS011;11115;46.038;14.612;2023-02-15T17:05:55;14.50;;;5.40;;
21901;SDS011;11115;46.038;14.612;2023-02-15T17:08:35;13.10;;;5.73;;
21901;SDS011;11115;46.038;14.612;2023-02-15T17:16:49;15.53;;;6.63;;
21901;SDS011;11115;46.038;14.612;2023-02-15T17:19:40;25.60;;;7.03;;
21901;SDS011;11115;46.038;14.612;2023-02-15T17:22:27;11.60;;;5.20;;
21901;SDS011;11115;46.038;14.612;2023-02-15T17:25:18;15.00;;;6.43;;
21901;SDS011;11115;46.038;14.612;2023-02-15T17:27:50;13.03;;;5.77;;
21901;SDS011;11115;46.038;14.612;2023-02-15T17:30:30;21.57;;;6.73;;
21901;SDS011;11115;46.038;14.612;2023-02-15T17:33:01;23.17;;;7.50;;
21901;SDS011;11115;46.038;14.612;2023-02-15T17:35:38;22.53;;;8.40;;
21901;SDS011;11115;46.038;14.612;2023-02-15T17:38:18;32.40;;;8.83;;
21901;SDS011;11115;46.038;14.612;2023-02-15T17:40:50;24.80;;;8.20;;
21901;SDS011;11115;46.038;14.612;2023-02-15T17:43:19;25.40;;;8.85;;
21901;SDS011;11115;46.038;14.612;2023-02-15T17:45:54;19.77;;;8.53;;
21901;SDS011;11115;46.038;14.612;2023-02-15T17:48:35;11.93;;;6.33;;
21901;SDS011;11115;46.038;14.612;2023-02-15T17:51:13;25.83;;;7.60;;
21901;SDS011;11115;46.038;14.612;2023-02-15T17:56:33;13.17;;;6.80;;
21901;SDS011;11115;46.038;14.612;2023-02-15T17:59:09;11.17;;;5.57;;
21901;SDS011;11115;46.038;14.612;2023-02-15T18:01:48;11.40;;;5.10;;
21901;SDS011;11115;46.038;14.612;2023-02-15T18:04:37;10.60;;;5.83;;
21901;SDS011;11115;46.038;14.612;2023-02-15T18:07:27;18.10;;;7.37;;
21901;SDS011;11115;46.038;14.612;2023-02-15T18:10:26;13.07;;;6.07;;
21901;SDS011;11115;46.038;14.612;2023-02-15T18:13:15;16.87;;;6.43;;
21901;SDS011;11115;46.038;14.612;2023-02-15T18:15:49;18.97;;;6.73;;
21901;SDS011;11115;46.038;14.612;2023-02-15T18:18:20;17.85;;;6.38;;
21901;SDS011;11115;46.038;14.612;2023-02-15T18:20:50;15.23;;;6.37;;
21901;SDS011;11115;46.038;14.612;2023-02-15T18:23:23;24.47;;;6.67;;
21901;SDS011;11115;46.038;14.612;2023-02-15T18:26:01;10.77;;;6.10;;
21901;SDS011;11115;46.038;14.612;2023-02-15T18:28:41;14.20;;;6.83;;
21901;SDS011;11115;46.038;14.612;2023-02-15T18:31:15;19.00;;;8.03;;
21901;SDS011;11115;46.038;14.612;2023-02-15T18:33:49;12.30;;;5.90;;
21901;SDS011;11115;46.038;14.612;2023-02-15T18:36:36;10.37;;;5.07;;
21901;SDS011;11115;46.038;14.612;2023-02-15T18:39:48;17.60;;;7.17;;
21901;SDS011;11115;46.038;14.612;2023-02-15T18:42:26;18.60;;;7.67;;
21901;SDS011;11115;46.038;14.612;2023-02-15T18:45:21;26.52;;;10.73;;
21901;SDS011;11115;46.038;14.612;2023-02-15T18:48:04;25.50;;;9.73;;
21901;SDS011;11115;46.038;14.612;2023-02-15T18:50:39;23.43;;;7.97;;
21901;SDS011;11115;46.038;14.612;2023-02-15T18:53:13;31.27;;;10.90;;
21901;SDS011;11115;46.038;14.612;2023-02-15T18:55:48;29.77;;;11.23;;
21901;SDS011;11115;46.038;14.612;2023-02-15T18:58:21;39.03;;;9.83;;
21901;SDS011;11115;46.038;14.612;2023-02-15T19:00:56;28.37;;;12.93;;
21901;SDS011;11115;46.038;14.612;2023-02-15T19:03:30;31.40;;;11.37;;
21901;SDS011;11115;46.038;14.612;2023-02-15T19:06:10;29.20;;;9.80;;
21901;SDS011;11115;46.038;14.612;2023-02-15T19:08:45;22.57;;;9.33;;
21901;SDS011;11115;46.038;14.612;2023-02-15T19:14:04;25.93;;;9.30;;
21901;SDS011;11115;46.038;14.612;2023-02-15T19:16:34;18.07;;;8.70;;
21901;SDS011;11115;46.038;14.612;2023-02-15T19:19:06;21.33;;;11.57;;
21901;SDS011;11115;46.038;14.612;2023-02-15T19:21:38;20.95;;;8.98;;
21901;SDS011;11115;46.038;14.612;2023-02-15T19:24:13;33.70;;;11.90;;
21901;SDS011;11115;46.038;14.612;2023-02-15T19:26:52;26.70;;;11.00;;